TAP116 LPPT-SBGR
Flight info
| Callsign | TAP116 |
|---|---|
| Flight time | N/A |
| Altitude | 33000 |
| Route | BEVOP DCT BAROK UN873 SAMAR N873 ODEGI/N0481F340 N873 IPERA UN873 SADBA/N0479F360 UN873 NTL DCT OPTUR DCT ASGIK UZ21 USIPA/N0473F380 UZ21 VUNOX |
| Aircraft | A339/H-SADE1E2E3GHIJ3J5M1P2RWXY/LB2D1 |
Departure
| Time | 2026-04-30 22:11 |
|---|---|
| Airport | Lisbon Humberto Delgado Airport (LPPT) |
Arrival
| Time | N/A |
|---|---|
| Airport | São Paulo/Guarulhos–Governor André Franco Montoro International Airport (SBGR) |
| Time | Latitude | Longitude | Altitude | Speed | Heading |
|---|---|---|---|---|---|
| 2026-04-30 21:39 | 38.77548 | -9.13180 | 390 ft | 0 kts | 77° |
| 2026-04-30 21:57 | 38.77544 | -9.13197 | 390 ft | 2 kts | 77° |
| 2026-04-30 21:57 | 38.77541 | -9.13216 | 390 ft | 2 kts | 77° |
| 2026-04-30 21:58 | 38.77539 | -9.13228 | 390 ft | 2 kts | 77° |
| 2026-04-30 21:58 | 38.77534 | -9.13246 | 390 ft | 2 kts | 59° |
| 2026-04-30 21:58 | 38.77525 | -9.13263 | 390 ft | 2 kts | 46° |
| 2026-04-30 21:58 | 38.77513 | -9.13276 | 390 ft | 2 kts | 32° |
| 2026-04-30 21:59 | 38.77499 | -9.13285 | 390 ft | 2 kts | 18° |
| 2026-04-30 21:59 | 38.77484 | -9.13289 | 390 ft | 2 kts | 5° |
| 2026-04-30 21:59 | 38.77469 | -9.13289 | 390 ft | 2 kts | 352° |
| 2026-04-30 22:00 | 38.77461 | -9.13287 | 390 ft | 0 kts | 347° |
| 2026-04-30 22:02 | 38.77463 | -9.13288 | 390 ft | 1 kts | 347° |
| 2026-04-30 22:02 | 38.77488 | -9.13293 | 390 ft | 4 kts | 350° |
| 2026-04-30 22:02 | 38.77525 | -9.13302 | 390 ft | 6 kts | 348° |
| 2026-04-30 22:02 | 38.77573 | -9.13314 | 390 ft | 7 kts | 352° |
| 2026-04-30 22:03 | 38.77628 | -9.13318 | 390 ft | 8 kts | 359° |
| 2026-04-30 22:03 | 38.77687 | -9.13327 | 390 ft | 8 kts | 350° |
| 2026-04-30 22:03 | 38.77747 | -9.13340 | 390 ft | 9 kts | 350° |
| 2026-04-30 22:03 | 38.77815 | -9.13357 | 390 ft | 10 kts | 348° |
| 2026-04-30 22:04 | 38.77886 | -9.13377 | 390 ft | 10 kts | 348° |
| 2026-04-30 22:04 | 38.77967 | -9.13399 | 390 ft | 12 kts | 348° |
| 2026-04-30 22:04 | 38.78151 | -9.13449 | 390 ft | 14 kts | 348° |
| 2026-04-30 22:05 | 38.78257 | -9.13478 | 390 ft | 16 kts | 347° |
| 2026-04-30 22:05 | 38.78374 | -9.13510 | 390 ft | 17 kts | 348° |
| 2026-04-30 22:05 | 38.78493 | -9.13543 | 390 ft | 17 kts | 348° |
| 2026-04-30 22:05 | 38.78611 | -9.13570 | 390 ft | 16 kts | 1° |
| 2026-04-30 22:06 | 38.78717 | -9.13527 | 390 ft | 16 kts | 24° |
| 2026-04-30 22:06 | 38.78925 | -9.13414 | 390 ft | 16 kts | 23° |
| 2026-04-30 22:06 | 38.79036 | -9.13355 | 390 ft | 17 kts | 22° |
| 2026-04-30 22:07 | 38.79148 | -9.13296 | 390 ft | 17 kts | 22° |
| 2026-04-30 22:07 | 38.79258 | -9.13236 | 390 ft | 16 kts | 23° |
| 2026-04-30 22:07 | 38.79367 | -9.13177 | 390 ft | 16 kts | 22° |
| 2026-04-30 22:07 | 38.79474 | -9.13121 | 390 ft | 16 kts | 22° |
| 2026-04-30 22:08 | 38.79578 | -9.13064 | 390 ft | 16 kts | 22° |
| 2026-04-30 22:08 | 38.79683 | -9.13010 | 390 ft | 16 kts | 22° |
| 2026-04-30 22:08 | 38.79765 | -9.12939 | 390 ft | 12 kts | 79° |
| 2026-04-30 22:08 | 38.79744 | -9.12834 | 390 ft | 11 kts | 109° |
| 2026-04-30 22:09 | 38.79706 | -9.12764 | 390 ft | 7 kts | 163° |
| 2026-04-30 22:09 | 38.79653 | -9.12776 | 390 ft | 8 kts | 200° |
| 2026-04-30 22:09 | 38.79604 | -9.12810 | 390 ft | 6 kts | 197° |
| 2026-04-30 22:09 | 38.79573 | -9.12821 | 390 ft | 0 kts | 200° |
| 2026-04-30 22:10 | 38.79517 | -9.12849 | 390 ft | 33 kts | 207° |
| 2026-04-30 22:10 | 38.79108 | -9.13071 | 390 ft | 93 kts | 202° |
| 2026-04-30 22:10 | 38.78348 | -9.13474 | 390 ft | 143 kts | 203° |
| 2026-04-30 22:10 | 38.77277 | -9.14053 | 395 ft | 185 kts | 205° |
| 2026-04-30 22:11 | 38.74826 | -9.15334 | 1446 ft | 189 kts | 204° |
| 2026-04-30 22:11 | 38.73614 | -9.15953 | 2042 ft | 189 kts | 204° |
| 2026-04-30 22:11 | 38.72362 | -9.16615 | 2374 ft | 197 kts | 204° |
| 2026-04-30 22:12 | 38.71067 | -9.17320 | 2667 ft | 208 kts | 204° |
| 2026-04-30 22:12 | 38.69679 | -9.18061 | 2941 ft | 222 kts | 203° |
| 2026-04-30 22:12 | 38.68192 | -9.18843 | 3157 ft | 241 kts | 202° |
| 2026-04-30 22:12 | 38.66555 | -9.19707 | 3315 ft | 262 kts | 202° |
| 2026-04-30 22:13 | 38.64844 | -9.20616 | 3799 ft | 269 kts | 202° |
| 2026-04-30 22:13 | 38.63100 | -9.21424 | 4525 ft | 266 kts | 198° |
| 2026-04-30 22:13 | 38.61327 | -9.22034 | 5252 ft | 263 kts | 193° |
| 2026-04-30 22:13 | 38.59538 | -9.22443 | 5973 ft | 259 kts | 188° |
| 2026-04-30 22:14 | 38.57781 | -9.22798 | 6488 ft | 262 kts | 196° |
| 2026-04-30 22:14 | 38.55981 | -9.23508 | 6909 ft | 270 kts | 196° |
| 2026-04-30 22:14 | 38.54137 | -9.24012 | 7465 ft | 273 kts | 191° |
| 2026-04-30 22:14 | 38.52260 | -9.24422 | 8043 ft | 275 kts | 191° |
| 2026-04-30 22:15 | 38.50379 | -9.24795 | 8604 ft | 277 kts | 190° |
| 2026-04-30 22:15 | 38.48479 | -9.25150 | 9148 ft | 279 kts | 189° |
| 2026-04-30 22:15 | 38.46525 | -9.25501 | 9688 ft | 282 kts | 189° |
| 2026-04-30 22:15 | 38.44593 | -9.25839 | 10241 ft | 284 kts | 189° |
| 2026-04-30 22:16 | 38.42614 | -9.26182 | 10599 ft | 293 kts | 189° |
| 2026-04-30 22:16 | 38.40512 | -9.26545 | 10856 ft | 307 kts | 189° |
| 2026-04-30 22:17 | 38.33769 | -9.27700 | 11568 ft | 347 kts | 189° |
| 2026-04-30 22:17 | 38.31325 | -9.28116 | 11801 ft | 360 kts | 189° |
| 2026-04-30 22:17 | 38.26226 | -9.28980 | 12516 ft | 376 kts | 189° |
| 2026-04-30 22:18 | 38.23649 | -9.29416 | 13079 ft | 378 kts | 189° |
| 2026-04-30 22:18 | 38.18384 | -9.30307 | 14153 ft | 383 kts | 189° |
| 2026-04-30 22:19 | 38.13106 | -9.31203 | 15166 ft | 388 kts | 189° |
| 2026-04-30 22:19 | 38.10413 | -9.31661 | 15670 ft | 392 kts | 189° |
| 2026-04-30 22:19 | 38.04950 | -9.32587 | 16659 ft | 398 kts | 189° |
| 2026-04-30 22:20 | 38.02207 | -9.33050 | 17144 ft | 401 kts | 189° |
| 2026-04-30 22:20 | 37.96609 | -9.33909 | 18115 ft | 407 kts | 188° |
| 2026-04-30 22:20 | 37.93802 | -9.34271 | 18587 ft | 410 kts | 188° |
| 2026-04-30 22:21 | 37.90976 | -9.34633 | 19058 ft | 412 kts | 188° |
| 2026-04-30 22:21 | 37.88094 | -9.35005 | 19535 ft | 415 kts | 188° |
| 2026-04-30 22:21 | 37.85241 | -9.35377 | 19987 ft | 417 kts | 188° |
| 2026-04-30 22:21 | 37.82338 | -9.35758 | 20433 ft | 420 kts | 188° |
| 2026-04-30 22:22 | 37.79417 | -9.36143 | 20879 ft | 422 kts | 188° |
| 2026-04-30 22:22 | 37.76568 | -9.36520 | 21288 ft | 424 kts | 188° |
| 2026-04-30 22:22 | 37.73539 | -9.36920 | 21722 ft | 426 kts | 188° |
| 2026-04-30 22:22 | 37.70615 | -9.37307 | 22131 ft | 428 kts | 188° |
| 2026-04-30 22:23 | 37.67631 | -9.37701 | 22514 ft | 430 kts | 188° |
| 2026-04-30 22:23 | 37.64638 | -9.38095 | 22887 ft | 432 kts | 189° |
| 2026-04-30 22:23 | 37.61657 | -9.38618 | 23245 ft | 434 kts | 192° |
| 2026-04-30 22:23 | 37.58720 | -9.39362 | 23587 ft | 435 kts | 196° |
| 2026-04-30 22:24 | 37.55774 | -9.40349 | 23927 ft | 436 kts | 199° |
| 2026-04-30 22:24 | 37.52887 | -9.41485 | 24245 ft | 438 kts | 200° |
| 2026-04-30 22:24 | 37.49950 | -9.42649 | 24564 ft | 441 kts | 200° |
| 2026-04-30 22:24 | 37.47040 | -9.43806 | 24867 ft | 443 kts | 200° |
| 2026-04-30 22:25 | 37.44072 | -9.44984 | 25161 ft | 446 kts | 200° |
| 2026-04-30 22:25 | 37.41131 | -9.46151 | 25458 ft | 448 kts | 200° |
| 2026-04-30 22:25 | 37.38134 | -9.47337 | 25755 ft | 450 kts | 201° |
| 2026-04-30 22:25 | 37.35165 | -9.48514 | 26042 ft | 452 kts | 201° |
| 2026-04-30 22:26 | 37.29136 | -9.50898 | 26581 ft | 457 kts | 201° |
| 2026-04-30 22:26 | 37.26100 | -9.52095 | 26864 ft | 458 kts | 201° |
| 2026-04-30 22:26 | 37.23048 | -9.53300 | 27123 ft | 460 kts | 201° |
| 2026-04-30 22:27 | 37.19965 | -9.54516 | 27380 ft | 462 kts | 201° |
| 2026-04-30 22:27 | 37.16902 | -9.55722 | 27696 ft | 463 kts | 201° |
| 2026-04-30 22:27 | 37.10784 | -9.58125 | 28468 ft | 460 kts | 201° |
| 2026-04-30 22:28 | 37.04679 | -9.60520 | 29171 ft | 458 kts | 202° |
| 2026-04-30 22:28 | 37.01614 | -9.61722 | 29504 ft | 457 kts | 202° |
| 2026-04-30 22:29 | 36.92549 | -9.65274 | 30536 ft | 454 kts | 202° |
| 2026-04-30 22:29 | 36.89526 | -9.66457 | 30893 ft | 453 kts | 202° |
| 2026-04-30 22:30 | 36.77500 | -9.71151 | 31977 ft | 454 kts | 202° |
| 2026-04-30 22:31 | 36.68414 | -9.74685 | 32652 ft | 456 kts | 202° |
| 2026-04-30 22:32 | 36.59305 | -9.78220 | 33149 ft | 458 kts | 202° |
| 2026-04-30 22:32 | 36.53229 | -9.80572 | 33157 ft | 458 kts | 202° |
| 2026-04-30 22:33 | 36.38032 | -9.86440 | 33156 ft | 457 kts | 203° |
| 2026-04-30 22:35 | 36.22810 | -9.92297 | 33160 ft | 457 kts | 203° |
| 2026-04-30 22:36 | 36.07645 | -9.98114 | 33161 ft | 456 kts | 203° |
| 2026-04-30 22:37 | 35.96027 | -10.04010 | 33160 ft | 448 kts | 214° |
| 2026-04-30 22:38 | 35.85769 | -10.12395 | 33161 ft | 439 kts | 223° |
| 2026-04-30 22:39 | 35.78443 | -10.19181 | 33160 ft | 438 kts | 223° |
| 2026-04-30 22:40 | 35.63833 | -10.32677 | 33159 ft | 437 kts | 223° |
| 2026-04-30 22:41 | 35.51691 | -10.43844 | 33154 ft | 436 kts | 223° |
| 2026-04-30 22:43 | 35.37087 | -10.57223 | 33159 ft | 435 kts | 224° |
| 2026-04-30 22:44 | 35.27383 | -10.66079 | 33161 ft | 434 kts | 223° |
| 2026-04-30 22:45 | 35.12835 | -10.79303 | 33157 ft | 435 kts | 223° |
| 2026-04-30 22:47 | 34.98308 | -10.92451 | 33153 ft | 433 kts | 223° |
| 2026-04-30 22:48 | 34.88668 | -11.01143 | 33159 ft | 433 kts | 223° |
| 2026-04-30 22:49 | 34.74125 | -11.14214 | 33159 ft | 434 kts | 223° |
| 2026-04-30 22:51 | 34.59573 | -11.27241 | 33162 ft | 433 kts | 223° |
| 2026-04-30 22:52 | 34.52285 | -11.33768 | 33158 ft | 433 kts | 223° |
| 2026-04-30 22:53 | 34.42588 | -11.42440 | 33160 ft | 433 kts | 224° |
| 2026-04-30 22:53 | 34.35332 | -11.48919 | 33159 ft | 432 kts | 223° |
| 2026-04-30 22:55 | 34.23192 | -11.59722 | 33165 ft | 433 kts | 223° |
| 2026-04-30 22:56 | 34.13509 | -11.68310 | 33160 ft | 433 kts | 223° |
| 2026-04-30 22:57 | 34.01338 | -11.79073 | 33160 ft | 435 kts | 223° |
| 2026-04-30 22:58 | 33.91579 | -11.87673 | 33157 ft | 434 kts | 223° |
| 2026-04-30 22:59 | 33.76960 | -12.00511 | 33161 ft | 433 kts | 223° |